Hauptseite
METAR-TAF:

METAR-TAF

Flughäfen :

Mount Pleasant Municipal Airport

Mount Pleasant, Michigan, Vereinigte Staaten

Breite: 43-37N, Länge: 084-44W, Höhe: 230 m

Beobachtung

Neuester Wetterbericht von vor 16 Minuten, um 17:16 UTC
Wind 9 kt aus Nordwest
Temperatur 5°C
Luftfeuchtigkeit 81%
Luftdruck 1015 hPa
Sichtweite: 16.1 km
Durchbrochene Bewölkung in der Höhe von 1900 ft
Durchbrochene Bewölkung in der Höhe von 2900 ft
Geschlossene Wolkendecke in der Höhe von 4600 ft

METAR: KMOP 301716Z AUTO 31009KT 10SM BKN019 BKN029 OVC046 05/02 A2998 RMK AO2 T00540020

Zeit: 13:32 (17:32 UTC)


TAF: fehlend

Wetterbeobachtungen und Prognosen von mehr als 4000 Flughäfen (METAR und TAF Bericht).

Die verfügbaren Stationen werden durch gelbe und rote Markierungen auf der Karte dargestellt.

Führen Sie die Maus auf sie, um den Namen der Station zu sehen.

Darauf klicken, um die Beobachtung von Wetterbeobachtungen und Prognosen zu sehen.

Um die Karte zu ändern : klicken Sie auf den grünen Tasten mit einem schwarzen Kreuz Zum Vergrößern, auf den grünen Button mit einem Gedankenstrich zu verkleinern, oder auf die grünen Pfeile für benachbarte Karten.


METAR-TAF: